createdAt,value
2018-10-06T00:00:15.632Z,101125.27
2018-10-06T00:02:44.221Z,101131.39
2018-10-06T00:05:12.867Z,101127.66
2018-10-06T00:07:41.516Z,101119.40
2018-10-06T00:10:10.174Z,101120.81
2018-10-06T00:12:39.401Z,101113.35
2018-10-06T00:15:08.268Z,101116.79
2018-10-06T00:17:37.606Z,101118.92
2018-10-06T00:20:06.985Z,101121.56
2018-10-06T00:22:36.360Z,101114.89
2018-10-06T00:25:05.383Z,101112.64
2018-10-06T00:27:33.957Z,101117.36
2018-10-06T00:30:02.545Z,101119.48
2018-10-06T00:32:31.280Z,101112.58
2018-10-06T00:34:59.834Z,101113.06
2018-10-06T00:37:29.000Z,101114.16
2018-10-06T00:39:57.515Z,101109.21
2018-10-06T00:42:26.831Z,101101.41
2018-10-06T00:44:56.213Z,101106.52
2018-10-06T00:47:25.978Z,101103.98
2018-10-06T00:49:55.259Z,101106.97
2018-10-06T00:52:24.070Z,101105.42
2018-10-06T00:54:52.648Z,101100.58
2018-10-06T00:57:21.245Z,101097.35
2018-10-06T00:59:49.903Z,101099.03
2018-10-06T01:02:18.521Z,101094.50
2018-10-06T01:04:47.437Z,101102.05
2018-10-06T01:07:16.676Z,101101.06
2018-10-06T01:09:45.369Z,101098.49
2018-10-06T01:12:14.306Z,101089.10
2018-10-06T01:14:42.842Z,101087.82
2018-10-06T01:17:11.417Z,101083.06
2018-10-06T01:19:40.051Z,101087.38
2018-10-06T01:22:11.084Z,101084.66
2018-10-06T01:24:40.256Z,101083.79
2018-10-06T01:27:08.859Z,101070.50
2018-10-06T01:29:37.372Z,101078.72
2018-10-06T01:32:06.100Z,101070.35
2018-10-06T01:34:35.118Z,101065.30
2018-10-06T01:37:03.700Z,101057.75
2018-10-06T01:39:32.659Z,101054.79
2018-10-06T01:42:01.656Z,101049.80
2018-10-06T01:44:30.307Z,101056.52
2018-10-06T01:46:58.965Z,101056.08
2018-10-06T01:49:27.746Z,101045.00
2018-10-06T01:51:56.349Z,101048.14
2018-10-06T01:54:25.435Z,101048.08
2018-10-06T01:56:54.061Z,101045.35
2018-10-06T01:59:22.564Z,101035.98
2018-10-06T02:01:51.251Z,101042.69
2018-10-06T02:04:24.230Z,101031.05
2018-10-06T02:06:53.422Z,101034.18
2018-10-06T02:09:22.030Z,101034.68
2018-10-06T02:11:50.915Z,101026.57
2018-10-06T02:14:19.488Z,101025.24
2018-10-06T02:16:48.939Z,101022.30
2018-10-06T02:19:17.565Z,101025.61
2018-10-06T02:21:46.215Z,101018.72
2018-10-06T02:24:14.795Z,101023.42
2018-10-06T02:26:43.401Z,101019.23
2018-10-06T02:29:12.159Z,101012.35
2018-10-06T02:31:40.820Z,101018.39
2018-10-06T02:34:09.431Z,101016.37
2018-10-06T02:36:38.038Z,101010.69
2018-10-06T02:39:07.625Z,101008.82
2018-10-06T02:41:36.304Z,101007.77
2018-10-06T02:44:05.005Z,101006.30
2018-10-06T02:46:33.694Z,101005.44
2018-10-06T02:49:02.365Z,101003.70
2018-10-06T02:51:30.989Z,100995.98
2018-10-06T02:54:00.045Z,100995.19
2018-10-06T02:56:28.830Z,100985.91
2018-10-06T02:58:57.439Z,100987.81
2018-10-06T03:01:26.032Z,100996.06
2018-10-06T03:03:55.396Z,100995.90
2018-10-06T03:06:24.524Z,100998.73
2018-10-06T03:08:53.065Z,100994.50
2018-10-06T03:11:21.592Z,100995.05
2018-10-06T03:13:50.735Z,100995.81
2018-10-06T03:16:19.415Z,100988.30
2018-10-06T03:18:48.159Z,100989.28
2018-10-06T03:21:16.659Z,100984.54
2018-10-06T03:23:45.981Z,100986.41
2018-10-06T03:26:14.530Z,100983.52
2018-10-06T03:28:43.180Z,100986.29
2018-10-06T03:31:11.791Z,100980.48
2018-10-06T03:33:41.604Z,100976.53
2018-10-06T03:36:10.244Z,100974.05
2018-10-06T03:38:38.841Z,100972.08
2018-10-06T03:41:08.151Z,100974.08
2018-10-06T03:43:36.720Z,100966.33
2018-10-06T03:46:05.965Z,100968.00
2018-10-06T03:48:34.655Z,100969.86
2018-10-06T03:51:03.226Z,100953.96
2018-10-06T03:53:31.856Z,100953.64
2018-10-06T03:56:01.087Z,100950.73
2018-10-06T03:58:29.884Z,100947.85
2018-10-06T04:00:58.569Z,100945.67
2018-10-06T04:03:27.954Z,100939.24
2018-10-06T04:05:56.595Z,100940.50
2018-10-06T04:08:25.829Z,100930.98
2018-10-06T04:10:54.455Z,100933.94
2018-10-06T04:13:23.136Z,100931.87
2018-10-06T04:15:51.749Z,100935.25
2018-10-06T04:18:20.331Z,100927.92
2018-10-06T04:20:49.186Z,100917.50
2018-10-06T04:23:17.671Z,100919.55
2018-10-06T04:25:46.526Z,100909.23
2018-10-06T04:28:15.078Z,100915.41
2018-10-06T04:30:43.844Z,100903.08
2018-10-06T04:33:12.336Z,100898.61
2018-10-06T04:35:41.056Z,100891.33
2018-10-06T04:38:09.632Z,100893.34
2018-10-06T04:40:38.748Z,100895.22
2018-10-06T04:43:07.447Z,100885.49
2018-10-06T04:45:36.134Z,100884.78
2018-10-06T04:48:04.725Z,100883.23
2018-10-06T04:50:33.528Z,100886.95
2018-10-06T04:53:02.243Z,100885.25
2018-10-06T04:55:30.825Z,100885.25
2018-10-06T04:57:59.419Z,100891.09
2018-10-06T05:00:28.072Z,100885.14
2018-10-06T05:02:57.584Z,100883.30
2018-10-06T05:05:26.392Z,100876.68
2018-10-06T05:07:56.481Z,100872.95
2018-10-06T05:10:26.669Z,100876.94
2018-10-06T05:12:56.045Z,100868.44
2018-10-06T05:15:24.771Z,100870.44
2018-10-06T05:17:54.019Z,100867.34
2018-10-06T05:20:22.805Z,100868.94
2018-10-06T05:22:51.408Z,100876.13
2018-10-06T05:25:19.949Z,100875.19
2018-10-06T05:27:48.663Z,100873.70
2018-10-06T05:30:17.280Z,100874.89
2018-10-06T05:32:46.031Z,100870.20
2018-10-06T05:35:14.606Z,100871.59
2018-10-06T05:37:43.264Z,100871.00
2018-10-06T05:40:11.903Z,100871.45
2018-10-06T05:42:40.589Z,100867.39
2018-10-06T05:45:09.209Z,100860.41
2018-10-06T05:47:37.895Z,100866.59
2018-10-06T05:50:07.381Z,100859.65
2018-10-06T05:52:36.119Z,100860.19
2018-10-06T05:55:05.061Z,100855.73
2018-10-06T05:57:33.798Z,100860.00
2018-10-06T06:00:02.366Z,100859.86
2018-10-06T06:02:30.962Z,100862.38
2018-10-06T06:04:59.611Z,100870.48
2018-10-06T06:07:28.324Z,100863.22
2018-10-06T06:09:57.017Z,100865.20
2018-10-06T06:12:26.033Z,100865.90
2018-10-06T06:14:54.750Z,100867.63
2018-10-06T06:17:23.430Z,100864.11
2018-10-06T06:19:52.812Z,100861.41
2018-10-06T06:22:21.511Z,100860.45
2018-10-06T06:24:50.289Z,100851.40
2018-10-06T06:27:19.525Z,100862.58
2018-10-06T06:29:48.197Z,100855.00
2018-10-06T06:32:19.423Z,100868.09
2018-10-06T06:34:47.910Z,100859.34
2018-10-06T06:37:16.509Z,100867.63
2018-10-06T06:39:45.155Z,100863.64
2018-10-06T06:42:13.909Z,100864.23
2018-10-06T06:44:42.556Z,100862.17
2018-10-06T06:47:11.145Z,100858.24
2018-10-06T06:49:40.389Z,100856.75
2018-10-06T06:52:09.139Z,100858.98
2018-10-06T06:54:37.661Z,100857.93
2018-10-06T06:57:06.930Z,100853.19
2018-10-06T06:59:35.570Z,100851.41
2018-10-06T07:02:04.245Z,100841.78
2018-10-06T07:04:33.014Z,100838.19
2018-10-06T07:07:01.542Z,100829.52
2018-10-06T07:09:30.793Z,100829.45
2018-10-06T07:11:59.605Z,100828.12
2018-10-06T07:14:28.139Z,100821.74
2018-10-06T07:16:57.195Z,100825.92
2018-10-06T07:19:26.684Z,100811.67
2018-10-06T07:21:56.768Z,100812.55
2018-10-06T07:24:26.212Z,100801.27
2018-10-06T07:26:54.809Z,100798.02
2018-10-06T07:29:23.454Z,100798.92
2018-10-06T07:31:51.998Z,100785.66
2018-10-06T07:34:20.573Z,100776.34
2018-10-06T07:36:49.175Z,100780.38
2018-10-06T07:39:17.878Z,100784.58
2018-10-06T07:41:46.983Z,100788.17
2018-10-06T07:44:15.624Z,100795.98
2018-10-06T07:46:44.176Z,100797.84
2018-10-06T07:49:13.474Z,100789.45
2018-10-06T07:51:42.084Z,100798.83
2018-10-06T07:54:10.742Z,100795.97
2018-10-06T07:56:39.410Z,100792.23
2018-10-06T07:59:07.942Z,100792.45
2018-10-06T08:01:37.239Z,100790.19
2018-10-06T08:04:05.869Z,100792.95
2018-10-06T08:06:34.660Z,100790.58
2018-10-06T08:09:03.231Z,100787.66
2018-10-06T08:11:32.465Z,100778.58
2018-10-06T08:14:01.140Z,100773.80
2018-10-06T08:16:29.770Z,100776.01
2018-10-06T08:18:58.884Z,100770.56
2018-10-06T08:21:28.031Z,100768.00
2018-10-06T08:23:57.308Z,100772.36
2018-10-06T08:26:26.205Z,100766.03
2018-10-06T08:28:55.730Z,100762.71
2018-10-06T08:31:24.954Z,100765.73
2018-10-06T08:33:53.763Z,100763.70
2018-10-06T08:36:22.280Z,100760.61
2018-10-06T08:38:50.862Z,100763.16
2018-10-06T08:41:19.623Z,100752.72
2018-10-06T08:43:48.315Z,100755.17
2018-10-06T08:46:17.040Z,100744.53
2018-10-06T08:48:46.696Z,100741.61
2018-10-06T08:51:15.504Z,100743.91
2018-10-06T08:53:44.688Z,100743.73
2018-10-06T08:56:13.489Z,100738.48
2018-10-06T08:58:42.618Z,100735.37
2018-10-06T09:01:11.226Z,100738.13
2018-10-06T09:03:39.996Z,100740.50
2018-10-06T09:06:09.440Z,100740.52
2018-10-06T09:08:39.144Z,100739.34
2018-10-06T09:11:08.280Z,100740.72
2018-10-06T09:13:38.129Z,100725.48
2018-10-06T09:16:07.581Z,100723.53
2018-10-06T09:18:36.287Z,100716.89
2018-10-06T09:21:04.999Z,100711.19
2018-10-06T09:23:34.063Z,100711.56
2018-10-06T09:26:02.671Z,100706.45
2018-10-06T09:28:32.011Z,100704.48
2018-10-06T09:31:00.660Z,100698.95
2018-10-06T09:33:29.931Z,100693.61
2018-10-06T09:35:58.673Z,100691.22
2018-10-06T09:38:27.898Z,100696.53
2018-10-06T09:40:57.574Z,100689.59
2018-10-06T09:43:26.575Z,100699.70
2018-10-06T09:45:55.322Z,100694.94
2018-10-06T09:48:23.925Z,100693.72
2018-10-06T09:50:52.629Z,100698.28
2018-10-06T09:53:21.251Z,100688.43
2018-10-06T09:55:49.866Z,100692.98
2018-10-06T09:58:18.466Z,100686.42
2018-10-06T10:00:52.400Z,100691.19
2018-10-06T10:03:26.165Z,100684.42
2018-10-06T10:05:55.705Z,100679.00
2018-10-06T10:08:24.355Z,100672.64
2018-10-06T10:10:52.940Z,100679.09
2018-10-06T10:13:22.524Z,100687.80
2018-10-06T10:15:51.170Z,100690.94
2018-10-06T10:18:19.901Z,100687.91
2018-10-06T10:20:48.961Z,100685.58
2018-10-06T10:23:17.668Z,100676.38
2018-10-06T10:25:46.373Z,100673.27
2018-10-06T10:28:15.203Z,100680.69
2018-10-06T10:30:43.745Z,100677.09
2018-10-06T10:33:12.419Z,100670.47
2018-10-06T10:35:41.030Z,100670.81
2018-10-06T10:38:09.633Z,100666.39
2018-10-06T10:40:38.249Z,100672.52
2018-10-06T10:56:28.813Z,100662.18
2018-10-06T10:58:57.403Z,100654.28
2018-10-06T11:01:26.369Z,100654.78
2018-10-06T11:03:55.031Z,100646.80
2018-10-06T11:06:23.620Z,100639.63
2018-10-06T11:08:53.045Z,100638.62
2018-10-06T11:11:21.771Z,100629.84
2018-10-06T11:13:50.435Z,100636.92
2018-10-06T11:16:19.202Z,100628.02
2018-10-06T11:18:49.335Z,100635.55
2018-10-06T11:21:18.075Z,100627.59
2018-10-06T11:23:46.820Z,100628.66
2018-10-06T11:26:16.194Z,100624.31
2018-10-06T11:28:44.715Z,100615.16
2018-10-06T11:31:13.354Z,100613.11
2018-10-06T11:33:41.897Z,100612.09
2018-10-06T11:36:10.519Z,100609.93
2018-10-06T11:38:39.215Z,100609.75
2018-10-06T11:41:08.045Z,100603.42
2018-10-06T11:43:36.700Z,100601.00
2018-10-06T11:46:05.964Z,100594.97
2018-10-06T11:48:34.642Z,100589.66
2018-10-06T11:51:03.255Z,100587.75
2018-10-06T11:53:31.902Z,100579.84
2018-10-06T11:56:00.646Z,100577.45
2018-10-06T11:58:29.248Z,100575.56
2018-10-06T12:01:01.736Z,100568.39
2018-10-06T12:03:30.574Z,100569.55
2018-10-06T12:05:59.138Z,100567.11
2018-10-06T12:08:28.291Z,100569.55
2018-10-06T13:28:34.274Z,100491.91
2018-10-06T13:31:03.099Z,100494.13
2018-10-06T13:33:32.232Z,100493.30
2018-10-06T13:36:01.044Z,100491.53
2018-10-06T13:38:29.614Z,100481.56
2018-10-06T13:40:59.069Z,100486.37
2018-10-06T13:43:27.798Z,100484.81
2018-10-06T13:45:56.345Z,100476.66
2018-10-06T13:48:25.550Z,100481.34
2018-10-06T13:50:54.346Z,100482.43
2018-10-06T13:53:22.978Z,100482.94
2018-10-06T13:55:51.684Z,100472.48
2018-10-06T13:58:20.292Z,100476.09
2018-10-06T14:00:50.234Z,100467.33
2018-10-06T14:03:18.990Z,100457.78
2018-10-06T14:05:47.537Z,100450.92
2018-10-06T14:08:16.304Z,100455.91
2018-10-06T14:10:44.880Z,100444.45
2018-10-06T14:13:13.722Z,100443.78
2018-10-06T14:15:42.381Z,100439.54
2018-10-06T14:18:11.279Z,100436.77
2018-10-06T14:20:40.991Z,100430.51
2018-10-06T14:23:09.801Z,100432.03
2018-10-06T14:25:38.753Z,100435.08
2018-10-06T14:28:08.047Z,100432.88
2018-10-06T14:30:36.929Z,100430.09
2018-10-06T14:33:05.665Z,100427.79
2018-10-06T14:35:34.364Z,100420.11
2018-10-06T14:38:02.948Z,100418.50
2018-10-06T14:40:31.642Z,100424.72
2018-10-06T14:43:00.318Z,100423.39
2018-10-06T14:45:29.208Z,100425.14
2018-10-06T14:47:58.211Z,100427.42
2018-10-06T14:50:27.675Z,100426.48
2018-10-06T14:52:56.538Z,100435.38
2018-10-06T14:55:25.207Z,100427.67
2018-10-06T14:57:54.689Z,100423.05
2018-10-06T15:00:25.052Z,100414.10
2018-10-06T15:02:54.247Z,100418.31
2018-10-06T15:05:23.032Z,100420.37
2018-10-06T15:07:58.143Z,100419.83
2018-10-06T15:10:26.791Z,100414.92
2018-10-06T15:12:56.063Z,100415.06
2018-10-06T15:15:25.527Z,100410.47
2018-10-06T15:17:54.864Z,100409.72
2018-10-06T15:20:23.615Z,100412.06
2018-10-06T15:22:52.338Z,100407.70
2018-10-06T15:25:20.915Z,100405.72
2018-10-06T15:27:50.468Z,100408.64
2018-10-06T15:30:20.928Z,100403.81
2018-10-06T15:36:04.060Z,100402.64
2018-10-06T15:38:32.687Z,100397.95
2018-10-06T15:41:01.544Z,100405.23
2018-10-06T15:43:30.196Z,100400.19
2018-10-06T15:45:58.897Z,100394.47
2018-10-06T15:48:27.643Z,100404.45
2018-10-06T15:50:56.331Z,100402.77
2018-10-06T15:53:25.147Z,100398.78
2018-10-06T15:55:54.446Z,100399.25
2018-10-06T15:58:23.773Z,100402.13
2018-10-06T16:00:52.953Z,100399.55
2018-10-06T16:03:21.856Z,100403.95
2018-10-06T16:05:50.545Z,100397.95
2018-10-06T16:08:19.206Z,100395.61
2018-10-06T16:10:47.819Z,100397.02
2018-10-06T16:13:18.566Z,100399.18
2018-10-06T16:15:47.268Z,100394.67
2018-10-06T16:18:15.997Z,100396.84
2018-10-06T16:20:44.827Z,100401.22
2018-10-06T16:23:13.432Z,100400.62
2018-10-06T16:25:42.341Z,100391.58
2018-10-06T16:28:11.197Z,100394.55
2018-10-06T16:30:39.858Z,100409.10
2018-10-06T16:33:08.636Z,100395.09
2018-10-06T16:35:37.257Z,100396.66
2018-10-06T16:38:05.954Z,100402.77
2018-10-06T16:40:35.605Z,100399.80
2018-10-06T16:43:05.252Z,100403.89
2018-10-06T16:45:34.102Z,100404.66
2018-10-06T16:48:03.786Z,100411.48
2018-10-06T16:50:32.945Z,100413.79
2018-10-06T16:53:01.562Z,100414.34
2018-10-06T16:55:30.502Z,100412.88
2018-10-06T16:57:59.258Z,100414.40
2018-10-06T17:00:27.932Z,100421.39
2018-10-06T17:02:56.624Z,100429.75
2018-10-06T17:05:25.372Z,100433.30
2018-10-06T17:07:54.015Z,100443.98
2018-10-06T17:10:22.684Z,100446.63
2018-10-06T17:12:52.093Z,100446.72
2018-10-06T17:15:20.667Z,100447.72
2018-10-06T17:17:50.149Z,100453.36
2018-10-06T17:20:19.352Z,100452.78
2018-10-06T17:22:48.125Z,100454.57
2018-10-06T17:25:17.724Z,100462.77
2018-10-06T17:27:46.412Z,100458.49
2018-10-06T17:30:14.959Z,100461.01
2018-10-06T17:32:43.646Z,100457.50
2018-10-06T17:35:12.674Z,100458.69
2018-10-06T17:37:41.457Z,100462.78
2018-10-06T17:40:10.175Z,100468.25
2018-10-06T17:42:38.937Z,100468.42
2018-10-06T17:45:07.949Z,100468.41
2018-10-06T17:47:37.752Z,100472.62
2018-10-06T17:50:07.185Z,100477.50
2018-10-06T17:52:36.442Z,100478.31
2018-10-06T17:55:05.248Z,100483.14
2018-10-06T17:57:33.932Z,100483.96
2018-10-06T18:00:02.946Z,100486.10
2018-10-06T18:02:32.342Z,100487.66
2018-10-06T18:05:00.997Z,100485.78
2018-10-06T18:07:29.606Z,100481.42
2018-10-06T18:09:58.273Z,100487.36
2018-10-06T18:12:27.983Z,100489.89
2018-10-06T18:14:56.459Z,100494.72
2018-10-06T18:17:25.057Z,100500.12
2018-10-06T18:19:53.634Z,100507.77
2018-10-06T18:22:22.291Z,100510.63
2018-10-06T18:24:50.957Z,100503.61
2018-10-06T18:27:19.648Z,100506.19
2018-10-06T18:29:49.089Z,100507.05
2018-10-06T18:32:17.773Z,100512.20
2018-10-06T18:34:46.406Z,100508.91
2018-10-06T18:37:14.969Z,100517.67
2018-10-06T18:39:43.570Z,100525.22
2018-10-06T18:42:12.168Z,100521.55
2018-10-06T18:44:40.735Z,100529.50
2018-10-06T18:47:09.353Z,100530.78
2018-10-06T18:49:37.970Z,100530.56
2018-10-06T18:52:06.601Z,100535.50
2018-10-06T18:54:35.175Z,100540.00
2018-10-06T18:57:04.337Z,100541.00
2018-10-06T18:59:32.864Z,100542.17
2018-10-06T19:02:01.436Z,100551.84
2018-10-06T19:04:30.064Z,100554.90
2018-10-06T19:06:59.327Z,100565.64
2018-10-06T19:09:28.091Z,100563.14
2018-10-06T19:11:56.698Z,100561.38
2018-10-06T19:14:25.483Z,100565.91
2018-10-06T19:16:54.139Z,100576.69
2018-10-06T19:19:22.956Z,100572.29
2018-10-06T19:21:51.656Z,100575.67
2018-10-06T19:24:20.232Z,100577.77
2018-10-06T19:26:48.980Z,100578.42
2018-10-06T19:29:17.944Z,100586.64
2018-10-06T19:31:46.542Z,100591.14
2018-10-06T19:34:15.144Z,100596.22
2018-10-06T19:36:43.736Z,100595.15
2018-10-06T19:39:12.371Z,100600.55
2018-10-06T19:41:40.954Z,100598.14
2018-10-06T19:44:09.577Z,100595.05
2018-10-06T19:46:38.184Z,100593.75
2018-10-06T19:49:06.902Z,100602.10
2018-10-06T19:51:35.648Z,100608.75
2018-10-06T19:54:04.855Z,100610.15
2018-10-06T19:56:33.618Z,100618.27
2018-10-06T19:59:02.184Z,100625.11
2018-10-06T20:01:30.813Z,100626.50
2018-10-06T20:06:39.963Z,100627.23
2018-10-06T20:09:09.921Z,100636.23
2018-10-06T20:11:38.887Z,100631.66
2018-10-06T20:14:07.514Z,100638.19
2018-10-06T20:16:36.299Z,100649.12
2018-10-06T20:19:05.178Z,100652.75
2018-10-06T20:21:33.723Z,100655.28
2018-10-06T20:24:02.291Z,100655.02
2018-10-06T20:26:30.900Z,100665.94
2018-10-06T20:28:59.479Z,100674.13
2018-10-06T20:31:28.087Z,100667.75
2018-10-06T20:33:56.662Z,100679.25
2018-10-06T20:36:25.212Z,100686.05
2018-10-06T20:38:53.731Z,100688.45
2018-10-06T20:41:22.290Z,100690.20
2018-10-06T20:43:50.813Z,100693.06
2018-10-06T20:46:19.478Z,100698.93
2018-10-06T20:48:48.196Z,100705.17
2018-10-06T20:51:16.884Z,100704.67
2018-10-06T20:53:45.468Z,100705.88
2018-10-06T20:56:14.132Z,100716.96
2018-10-06T20:58:42.806Z,100721.63
2018-10-06T21:01:11.452Z,100721.80
2018-10-06T21:03:40.332Z,100726.45
2018-10-06T21:06:09.622Z,100725.88
2018-10-06T21:08:38.306Z,100730.80
2018-10-06T21:11:07.036Z,100731.29
2018-10-06T21:13:35.902Z,100728.34
2018-10-06T21:16:04.601Z,100724.55
2018-10-06T21:18:33.238Z,100729.40
2018-10-06T21:21:02.193Z,100721.98
2018-10-06T21:23:30.934Z,100736.78
2018-10-06T21:25:59.482Z,100746.31
2018-10-06T21:28:28.095Z,100750.81
2018-10-06T21:30:56.663Z,100752.92
2018-10-06T21:33:25.236Z,100758.23
2018-10-06T21:35:53.874Z,100759.61
2018-10-06T21:38:22.424Z,100765.67
2018-10-06T21:40:50.998Z,100769.27
2018-10-06T21:43:19.620Z,100762.93
2018-10-06T21:45:48.286Z,100764.30
2018-10-06T21:48:17.553Z,100765.73
2018-10-06T21:50:46.316Z,100773.90
2018-10-06T21:53:14.915Z,100772.16
2018-10-06T21:55:43.591Z,100778.85
2018-10-06T21:58:12.211Z,100779.55
2018-10-06T22:00:40.836Z,100781.44
2018-10-06T22:03:09.441Z,100783.12
2018-10-06T22:05:38.016Z,100789.11
2018-10-06T22:08:07.043Z,100791.68
2018-10-06T22:10:35.821Z,100797.03
2018-10-06T22:13:04.747Z,100798.88
2018-10-06T22:15:34.426Z,100797.28
2018-10-06T22:18:04.021Z,100795.78
2018-10-06T22:20:32.610Z,100790.38
2018-10-06T22:23:01.448Z,100797.73
2018-10-06T22:25:30.061Z,100794.77
2018-10-06T22:27:58.795Z,100787.95
2018-10-06T22:30:27.856Z,100784.00
2018-10-06T22:32:56.609Z,100780.11
2018-10-06T22:35:25.341Z,100779.55
2018-10-06T22:37:54.253Z,100768.86
2018-10-06T22:40:23.105Z,100769.45
2018-10-06T22:42:52.259Z,100765.58
2018-10-06T22:45:21.005Z,100761.34
2018-10-06T22:47:50.201Z,100753.05
2018-10-06T22:50:18.781Z,100749.03
2018-10-06T22:52:48.401Z,100755.20
2018-10-06T22:55:17.141Z,100741.27
2018-10-06T22:57:45.766Z,100743.73
2018-10-06T23:00:14.369Z,100759.78
2018-10-06T23:02:43.036Z,100764.67
2018-10-06T23:05:12.301Z,100765.61
2018-10-06T23:07:40.822Z,100768.64
2018-10-06T23:10:10.319Z,100775.40
2018-10-06T23:12:39.021Z,100780.58
2018-10-06T23:15:07.943Z,100787.81
2018-10-06T23:17:37.348Z,100797.39
2018-10-06T23:20:06.439Z,100803.08
2018-10-06T23:22:35.145Z,100801.97
2018-10-06T23:25:03.970Z,100811.38
2018-10-06T23:27:33.278Z,100818.91
2018-10-06T23:30:02.140Z,100825.64
2018-10-06T23:32:31.255Z,100832.12
2018-10-06T23:35:00.042Z,100839.88
2018-10-06T23:37:30.090Z,100848.97
2018-10-06T23:39:59.435Z,100852.13
2018-10-06T23:42:28.909Z,100853.70
2018-10-06T23:44:58.117Z,100865.70
2018-10-06T23:47:26.769Z,100879.38
2018-10-06T23:49:56.098Z,100892.41
2018-10-06T23:52:25.500Z,100896.22
2018-10-06T23:54:54.090Z,100898.14
2018-10-06T23:57:22.702Z,100902.56
2018-10-06T23:59:51.466Z,100906.55
